logo
Rechercher aéroport 
image banner adimage banner adimage banner ad
image banner ad

EYMO - Moletai

Situé à Moletai, Lithuania

ICAO - EYMO, IATA -

Données fournies par Airmate  

Information générale

Coordonnées: N55°6'46" E25°20'11"
Élévation : 653 feet MSL.
Variation magnétique : 7° East
Voir autres Aéroports à Utena County

Données opérationnelles

Special qualification required
Heure actuelle UTC:
Heure actuelle locale:
Météo à : EYVI - Vilnius/International ( 53 km )
METAR: EYVI 230020Z 08007KT CAVOK 16/11 Q1018 NOSIG
TAF: TAF EYVI 222305Z 2300/2324 10008KT 9000 SCT040 TEMPO 2300/2306 TSRA BKN035CB TEMPO 2308/2317 12015G25KT TSRA BKN040CB TEMPO 2317/2324 5000 TSRA BKN030CB
Voir NOTAMs / SUP AIP / TFR affectant cet aéroport [VIEW]
Fréquences de communication: [VIEW]

Pistes:

Identifiant RWYQFULongueur (ft)Largeur (ft)SurfaceLDA (ft)
0669°147666CONC+ASPH
24249°147666CONC+ASPH

Coordonnées de l'aéroport

Adresse: Moletai Lithuania

Vue satellite de EYMO